METAR Data
IDs: Format: Raw Decoded Include TAF

Data at: 1043 UTC 15 Jul 2020

KENV 150956Z AUTO 30005KT 10SM CLR 20/M02 A3008 RMK AO2 SLP142 T02001017
KENV 150856Z AUTO 24004KT 10SM CLR 21/M01 A3008 RMK AO2 SLP144 T02061011 51006
KENV 150756Z AUTO 29004KT 10SM CLR 22/00 A3008 RMK AO2 SLP140 T02170000
KENV 150656Z AUTO VRB04KT 10SM CLR 24/M01 A3008 RMK AO2 SLP141 T02391006 403220172
KENV 150556Z AUTO 01013KT 10SM CLR 24/00 A3006 RMK AO2 SLP135 T02440000 10322 20244 51022
KENV 150456Z AUTO 01017G24KT 10SM CLR 26/01 A3004 RMK AO2 SLP127 T02610006
KENV 150356Z AUTO 03009KT 10SM CLR 26/M02 A3001 RMK AO2 SLP118 T02611022
KENV 150256Z AUTO 06009KT 10SM CLR 28/M02 A2999 RMK AO2 SLP109 T02831022 53003
KENV 150156Z AUTO 06008KT 10SM CLR 31/M02 A2998 RMK AO2 SLP105 T03061017
KENV 150056Z AUTO 07007KT 10SM CLR 32/M02 A2997 RMK AO2 SLP103 T03171017
KENV 142356Z AUTO 11009KT 10SM CLR 32/M02 A2998 RMK AO2 SLP107 T03221017 10322 20278 56015
KENV 142256Z AUTO 12011KT 10SM CLR 32/M03 A2999 RMK AO2 SLP109 T03221028
KENV 142156Z AUTO 13011G15KT 10SM CLR 32/M02 A3001 RMK AO2 SLP116 T03171022
KENV 142056Z AUTO 12007KT 10SM CLR 31/M02 A3003 RMK AO2 SLP123 T03061022 58013
KENV 141956Z AUTO 12008KT 10SM CLR 30/M02 A3005 RMK AO2 SLP129 T03001022
KENV 141856Z AUTO 13008KT 10SM CLR 28/M03 A3007 RMK AO2 SLP137 T02831033
KENV 141756Z AUTO VRB05KT 10SM CLR 28/M04 A3007 RMK AO2 SLP138 T02781039 10278 20172 51002
KENV 141656Z AUTO 02009KT 10SM CLR 27/M04 A3007 RMK AO2 SLP136 T02671039
KENV 141556Z AUTO 02010KT 10SM CLR 26/M04 A3007 RMK AO2 SLP137 T02561044
KENV 141456Z AUTO 18003KT 10SM CLR 24/M03 A3006 RMK AO2 SLP134 T02441033 51011
KENV 141356Z AUTO VRB03KT 10SM CLR 22/M02 A3005 RMK AO2 SLP128 T02171017
KENV 141256Z AUTO 19003KT 10SM CLR 21/M02 A3004 RMK AO2 SLP124 T02111017
KENV 141156Z AUTO 01004KT 10SM CLR 19/M01 A3003 RMK AO2 SLP121 T01891011 10244 20183 52007
KENV 141056Z AUTO 30005KT 10SM CLR 21/M02 A3002 RMK AO2 SLP117 T02061022
KENV 140956Z AUTO 00000KT 10SM CLR 20/M01 A3001 RMK AO2 SLP114 T02001006
KENV 140856Z AUTO 16005KT 10SM CLR 22/00 A3000 RMK AO2 SLP111 T02170000 51011
KENV 140756Z AUTO 15004KT 10SM CLR 22/01 A3000 RMK AO2 SLP108 T02170011
KENV 140656Z AUTO 01010KT 10SM CLR 24/02 A2999 RMK AO2 SLP105 T02390017 403670233
KENV 140556Z AUTO 02012G19KT 10SM CLR 24/03 A2997 RMK AO2 SLP098 T02440033 10367 20244 51030
KENV 140456Z AUTO 35014KT 10SM CLR 27/04 A2993 RMK AO2 SLP083 T02670039
KENV 140356Z AUTO 01010KT 10SM CLR 28/04 A2991 RMK AO2 SLP077 T02780039
KENV 140256Z AUTO 03019G24KT 10SM CLR 30/03 A2987 RMK AO2 SLP062 T03000028 53007
KENV 140156Z AUTO 32014G23KT 10SM CLR 34/M07 A2983 RMK AO2 SLP046 T03441067
KENV 140056Z AUTO 30020G26KT 10SM CLR 36/M08 A2982 RMK AO2 PK WND 31026/0050 WSHFT 0009 SLP044 T03561078
KENV 140034Z AUTO 29015G20KT 10SM CLR 36/M08 A2983 RMK AO2 WSHFT 0009
KENV 132356Z AUTO 09004KT 10SM CLR 35/M03 A2984 RMK AO2 SLP050 T03501033 10356 20311 56018
KENV 132256Z AUTO 16004KT 10SM CLR 35/M03 A2986 RMK AO2 SLP056 T03501033